sensor_id;sensor_type;location;lat;lon;timestamp;pressure;altitude;pressure_sealevel;temperature;humidity
56600;BME280;51832;48.152;11.530;2023-07-02T00:03:13;94954.47;;;20.07;83.52
56600;BME280;51832;48.152;11.530;2023-07-02T00:08:13;94943.75;;;19.94;84.96
56600;BME280;51832;48.152;11.530;2023-07-02T00:13:14;94945.69;;;19.88;84.48
56600;BME280;51832;48.152;11.530;2023-07-02T00:18:15;94950.31;;;19.82;85.01
56600;BME280;51832;48.152;11.530;2023-07-02T00:23:16;94944.13;;;20.01;84.18
56600;BME280;51832;48.152;11.530;2023-07-02T00:28:16;94950.41;;;19.77;84.90
56600;BME280;51832;48.152;11.530;2023-07-02T00:33:17;94954.38;;;19.80;84.64
56600;BME280;51832;48.152;11.530;2023-07-02T00:38:18;94942.06;;;19.65;84.73
56600;BME280;51832;48.152;11.530;2023-07-02T00:43:18;94942.25;;;20.01;83.52
56600;BME280;51832;48.152;11.530;2023-07-02T00:48:19;94939.09;;;19.99;84.41
56600;BME280;51832;48.152;11.530;2023-07-02T00:53:19;94953.53;;;19.66;85.59
56600;BME280;51832;48.152;11.530;2023-07-02T00:58:20;94963.75;;;19.59;87.14
56600;BME280;51832;48.152;11.530;2023-07-02T01:03:21;94960.41;;;19.53;87.55
56600;BME280;51832;48.152;11.530;2023-07-02T01:08:21;94958.72;;;19.57;88.40
56600;BME280;51832;48.152;11.530;2023-07-02T01:13:24;94952.50;;;19.80;86.92
56600;BME280;51832;48.152;11.530;2023-07-02T01:18:24;94956.69;;;19.68;88.44
56600;BME280;51832;48.152;11.530;2023-07-02T01:23:25;94961.09;;;19.77;88.07
56600;BME280;51832;48.152;11.530;2023-07-02T01:28:34;94967.22;;;19.40;89.79
56600;BME280;51832;48.152;11.530;2023-07-02T01:33:35;94974.25;;;19.31;90.67
56600;BME280;51832;48.152;11.530;2023-07-02T01:38:36;94970.16;;;19.95;87.97
56600;BME280;51832;48.152;11.530;2023-07-02T01:43:37;94976.94;;;19.69;88.88
56600;BME280;51832;48.152;11.530;2023-07-02T01:48:37;94954.66;;;19.22;90.48
56600;BME280;51832;48.152;11.530;2023-07-02T01:53:37;94963.66;;;19.45;90.23
56600;BME280;51832;48.152;11.530;2023-07-02T01:58:38;94964.94;;;19.52;90.43
56600;BME280;51832;48.152;11.530;2023-07-02T02:03:38;94971.59;;;19.12;91.78
56600;BME280;51832;48.152;11.530;2023-07-02T02:08:39;94964.16;;;19.28;90.86
56600;BME280;51832;48.152;11.530;2023-07-02T02:13:39;94965.19;;;19.32;90.90
56600;BME280;51832;48.152;11.530;2023-07-02T02:18:40;94952.13;;;19.68;88.70
56600;BME280;51832;48.152;11.530;2023-07-02T02:23:40;94958.13;;;19.79;88.61
56600;BME280;51832;48.152;11.530;2023-07-02T02:28:41;94976.50;;;19.43;89.33
56600;BME280;51832;48.152;11.530;2023-07-02T02:33:42;94969.66;;;19.56;89.29
56600;BME280;51832;48.152;11.530;2023-07-02T02:38:42;94969.16;;;19.91;87.33
56600;BME280;51832;48.152;11.530;2023-07-02T02:43:43;94968.75;;;19.98;86.86
56600;BME280;51832;48.152;11.530;2023-07-02T02:48:43;94972.06;;;20.08;86.79
56600;BME280;51832;48.152;11.530;2023-07-02T02:53:44;94974.31;;;19.50;88.80
56600;BME280;51832;48.152;11.530;2023-07-02T02:58:44;94971.88;;;19.86;87.41
56600;BME280;51832;48.152;11.530;2023-07-02T03:03:45;94980.50;;;20.15;85.85
56600;BME280;51832;48.152;11.530;2023-07-02T03:08:45;94978.41;;;20.12;85.99
56600;BME280;51832;48.152;11.530;2023-07-02T03:13:45;94990.34;;;19.82;87.63
56600;BME280;51832;48.152;11.530;2023-07-02T03:18:46;95049.56;;;19.47;89.40
56600;BME280;51832;48.152;11.530;2023-07-02T03:23:46;95043.63;;;18.60;83.97
56600;BME280;51832;48.152;11.530;2023-07-02T03:28:47;95040.00;;;18.17;80.41
56600;BME280;51832;48.152;11.530;2023-07-02T03:33:47;95053.25;;;17.88;81.24
56600;BME280;51832;48.152;11.530;2023-07-02T03:38:48;95059.41;;;17.83;82.46
56600;BME280;51832;48.152;11.530;2023-07-02T03:43:48;95061.78;;;17.85;82.71
56600;BME280;51832;48.152;11.530;2023-07-02T03:48:49;95076.59;;;17.96;83.09
56600;BME280;51832;48.152;11.530;2023-07-02T03:53:49;95074.63;;;18.11;84.48
56600;BME280;51832;48.152;11.530;2023-07-02T03:58:49;95081.34;;;17.60;86.92
56600;BME280;51832;48.152;11.530;2023-07-02T04:03:52;95074.88;;;17.76;86.63
56600;BME280;51832;48.152;11.530;2023-07-02T04:08:52;95079.97;;;18.11;85.57
56600;BME280;51832;48.152;11.530;2023-07-02T04:13:53;95077.16;;;17.38;87.96
56600;BME280;51832;48.152;11.530;2023-07-02T04:18:53;95075.28;;;17.93;86.63
56600;BME280;51832;48.152;11.530;2023-07-02T04:23:53;95066.72;;;18.01;86.58
56600;BME280;51832;48.152;11.530;2023-07-02T04:28:54;95074.44;;;18.03;85.53
56600;BME280;51832;48.152;11.530;2023-07-02T04:33:56;95082.38;;;18.08;86.76
56600;BME280;51832;48.152;11.530;2023-07-02T04:38:57;95073.19;;;17.90;85.69
56600;BME280;51832;48.152;11.530;2023-07-02T04:43:57;95081.22;;;18.19;85.57
56600;BME280;51832;48.152;11.530;2023-07-02T04:48:58;95070.34;;;18.16;84.90
56600;BME280;51832;48.152;11.530;2023-07-02T04:53:58;95086.34;;;18.10;85.99
56600;BME280;51832;48.152;11.530;2023-07-02T04:58:58;95094.03;;;18.17;85.51
56600;BME280;51832;48.152;11.530;2023-07-02T05:03:59;95101.88;;;18.03;85.60
56600;BME280;51832;48.152;11.530;2023-07-02T05:08:59;95112.72;;;18.07;86.37
56600;BME280;51832;48.152;11.530;2023-07-02T05:14:00;95109.06;;;17.98;86.44
56600;BME280;51832;48.152;11.530;2023-07-02T05:19:00;95096.91;;;18.26;85.59
56600;BME280;51832;48.152;11.530;2023-07-02T05:24:00;95106.22;;;18.23;84.47
56600;BME280;51832;48.152;11.530;2023-07-02T05:29:01;95109.59;;;18.39;84.74
56600;BME280;51832;48.152;11.530;2023-07-02T05:34:02;95112.09;;;18.25;84.60
56600;BME280;51832;48.152;11.530;2023-07-02T05:39:02;95098.13;;;18.38;84.43
56600;BME280;51832;48.152;11.530;2023-07-02T05:44:03;95105.72;;;18.55;83.36
56600;BME280;51832;48.152;11.530;2023-07-02T05:49:03;95108.31;;;18.65;83.64
56600;BME280;51832;48.152;11.530;2023-07-02T05:54:06;95108.44;;;18.45;83.99
56600;BME280;51832;48.152;11.530;2023-07-02T05:59:06;95119.44;;;18.38;84.01
56600;BME280;51832;48.152;11.530;2023-07-02T06:04:07;95117.00;;;18.76;82.60
56600;BME280;51832;48.152;11.530;2023-07-02T06:09:07;95123.25;;;18.66;82.53
56600;BME280;51832;48.152;11.530;2023-07-02T06:14:08;95127.41;;;18.43;nan
56600;BME280;51832;48.152;11.530;2023-07-02T06:19:08;95126.38;;;18.73;83.91
56600;BME280;51832;48.152;11.530;2023-07-02T06:24:08;95137.50;;;18.80;83.00
56600;BME280;51832;48.152;11.530;2023-07-02T06:29:09;95148.41;;;18.45;83.96
56600;BME280;51832;48.152;11.530;2023-07-02T06:34:09;95153.13;;;18.92;82.69
56600;BME280;51832;48.152;11.530;2023-07-02T06:39:10;95149.56;;;18.73;83.10
56600;BME280;51832;48.152;11.530;2023-07-02T06:44:10;95148.72;;;18.77;84.72
56600;BME280;51832;48.152;11.530;2023-07-02T06:49:11;95161.78;;;19.08;83.09
56600;BME280;51832;48.152;11.530;2023-07-02T06:54:11;95163.38;;;18.41;86.69
56600;BME280;51832;48.152;11.530;2023-07-02T06:59:19;95168.72;;;18.41;86.91
56600;BME280;51832;48.152;11.530;2023-07-02T07:04:19;95170.31;;;18.42;87.84
56600;BME280;51832;48.152;11.530;2023-07-02T07:09:20;95170.97;;;18.19;88.51
56600;BME280;51832;48.152;11.530;2023-07-02T07:14:20;95176.28;;;18.19;87.95
56600;BME280;51832;48.152;11.530;2023-07-02T07:19:22;95188.19;;;18.36;89.15
56600;BME280;51832;48.152;11.530;2023-07-02T07:24:22;95193.25;;;18.33;89.43
56600;BME280;51832;48.152;11.530;2023-07-02T07:29:23;95182.06;;;18.36;88.57
56600;BME280;51832;48.152;11.530;2023-07-02T07:34:23;95183.25;;;18.15;88.75
56600;BME280;51832;48.152;11.530;2023-07-02T07:39:24;95181.75;;;18.42;87.97
56600;BME280;51832;48.152;11.530;2023-07-02T07:44:24;95196.72;;;17.84;90.42
56600;BME280;51832;48.152;11.530;2023-07-02T07:49:29;95202.84;;;17.80;91.96
56600;BME280;51832;48.152;11.530;2023-07-02T07:54:29;95198.84;;;17.82;91.53
56600;BME280;51832;48.152;11.530;2023-07-02T07:59:29;95199.53;;;18.52;90.86
56600;BME280;51832;48.152;11.530;2023-07-02T08:04:30;95202.59;;;18.74;89.74
56600;BME280;51832;48.152;11.530;2023-07-02T08:09:30;95192.84;;;19.23;87.77
56600;BME280;51832;48.152;11.530;2023-07-02T08:14:31;95192.63;;;19.14;87.53
56600;BME280;51832;48.152;11.530;2023-07-02T08:19:31;95205.63;;;19.26;86.45
56600;BME280;51832;48.152;11.530;2023-07-02T08:24:31;95208.72;;;19.09;88.58
56600;BME280;51832;48.152;11.530;2023-07-02T08:29:32;95217.13;;;18.58;90.69
56600;BME280;51832;48.152;11.530;2023-07-02T08:34:33;95222.72;;;18.52;90.88
56600;BME280;51832;48.152;11.530;2023-07-02T08:39:33;95222.59;;;18.28;90.66
56600;BME280;51832;48.152;11.530;2023-07-02T08:44:35;95238.72;;;18.46;91.56
56600;BME280;51832;48.152;11.530;2023-07-02T08:49:36;95232.47;;;18.27;91.35
56600;BME280;51832;48.152;11.530;2023-07-02T08:54:37;95232.94;;;18.34;91.67
56600;BME280;51832;48.152;11.530;2023-07-02T08:59:37;95229.72;;;18.81;91.06
56600;BME280;51832;48.152;11.530;2023-07-02T09:04:38;95246.13;;;18.60;91.23
56600;BME280;51832;48.152;11.530;2023-07-02T09:09:49;95237.31;;;18.64;92.19
56600;BME280;51832;48.152;11.530;2023-07-02T09:15:05;95247.75;;;18.51;91.67
56600;BME280;51832;48.152;11.530;2023-07-02T09:20:07;95242.94;;;18.58;91.43
56600;BME280;51832;48.152;11.530;2023-07-02T09:25:08;95241.78;;;18.74;91.35
56600;BME280;51832;48.152;11.530;2023-07-02T09:30:12;95240.94;;;18.78;91.32
56600;BME280;51832;48.152;11.530;2023-07-02T09:35:19;95252.75;;;18.67;91.47
56600;BME280;51832;48.152;11.530;2023-07-02T09:40:20;95247.25;;;18.88;91.93
56600;BME280;51832;48.152;11.530;2023-07-02T09:45:21;95249.59;;;19.28;89.45
56600;BME280;51832;48.152;11.530;2023-07-02T09:50:22;95251.81;;;19.21;88.37
56600;BME280;51832;48.152;11.530;2023-07-02T09:55:23;95250.63;;;19.03;90.56
56600;BME280;51832;48.152;11.530;2023-07-02T10:00:24;95252.72;;;19.06;88.95
56600;BME280;51832;48.152;11.530;2023-07-02T10:05:42;95246.28;;;19.12;89.02
56600;BME280;51832;48.152;11.530;2023-07-02T10:10:43;95245.00;;;19.05;88.87
56600;BME280;51832;48.152;11.530;2023-07-02T10:15:43;95235.88;;;19.93;85.46
56600;BME280;51832;48.152;11.530;2023-07-02T10:20:44;95234.94;;;20.82;83.28
56600;BME280;51832;48.152;11.530;2023-07-02T10:25:44;95238.38;;;20.27;81.28
56600;BME280;51832;48.152;11.530;2023-07-02T10:30:45;95242.19;;;20.63;81.45
56600;BME280;51832;48.152;11.530;2023-07-02T10:35:47;95237.66;;;20.64;81.29
56600;BME280;51832;48.152;11.530;2023-07-02T10:40:56;95234.59;;;20.70;79.32
56600;BME280;51832;48.152;11.530;2023-07-02T10:46:00;95233.09;;;20.45;81.03
56600;BME280;51832;48.152;11.530;2023-07-02T10:51:11;95228.53;;;20.46;78.92
56600;BME280;51832;48.152;11.530;2023-07-02T10:56:16;95232.47;;;20.30;79.63
56600;BME280;51832;48.152;11.530;2023-07-02T11:06:31;95228.25;;;21.17;76.93
56600;BME280;51832;48.152;11.530;2023-07-02T11:11:33;95220.66;;;21.24;77.00
56600;BME280;51832;48.152;11.530;2023-07-02T11:16:33;95218.78;;;21.06;75.02
56600;BME280;51832;48.152;11.530;2023-07-02T11:21:36;95206.72;;;21.55;74.89
56600;BME280;51832;48.152;11.530;2023-07-02T11:26:38;95220.00;;;21.74;73.84
56600;BME280;51832;48.152;11.530;2023-07-02T11:31:38;95212.31;;;22.00;72.53
56600;BME280;51832;48.152;11.530;2023-07-02T11:36:39;95197.69;;;22.19;72.42
56600;BME280;51832;48.152;11.530;2023-07-02T11:41:41;95201.38;;;22.10;72.35
56600;BME280;51832;48.152;11.530;2023-07-02T11:46:42;95194.03;;;22.51;72.52
56600;BME280;51832;48.152;11.530;2023-07-02T11:51:43;95196.72;;;22.74;69.72
56600;BME280;51832;48.152;11.530;2023-07-02T11:56:48;95177.38;;;22.99;68.39
56600;BME280;51832;48.152;11.530;2023-07-02T12:01:49;95178.50;;;23.37;67.08
56600;BME280;51832;48.152;11.530;2023-07-02T12:06:49;95170.28;;;23.65;67.28
56600;BME280;51832;48.152;11.530;2023-07-02T12:11:50;95176.56;;;23.91;64.67
56600;BME280;51832;48.152;11.530;2023-07-02T12:16:50;95158.41;;;24.14;64.46
56600;BME280;51832;48.152;11.530;2023-07-02T12:21:50;95167.28;;;24.15;64.57
56600;BME280;51832;48.152;11.530;2023-07-02T12:26:51;95159.56;;;24.30;64.03
56600;BME280;51832;48.152;11.530;2023-07-02T12:31:51;95160.09;;;23.93;65.39
56600;BME280;51832;48.152;11.530;2023-07-02T12:36:52;95153.34;;;24.04;65.01
56600;BME280;51832;48.152;11.530;2023-07-02T12:41:52;95156.97;;;23.51;65.05
56600;BME280;51832;48.152;11.530;2023-07-02T12:46:53;95146.38;;;24.20;61.00
56600;BME280;51832;48.152;11.530;2023-07-02T12:51:53;95140.06;;;25.02;58.06
56600;BME280;51832;48.152;11.530;2023-07-02T12:56:53;95135.19;;;24.78;55.85
56600;BME280;51832;48.152;11.530;2023-07-02T13:01:54;95146.56;;;25.01;53.52
56600;BME280;51832;48.152;11.530;2023-07-02T13:06:54;95128.22;;;24.86;53.68
56600;BME280;51832;48.152;11.530;2023-07-02T13:11:54;95130.25;;;25.06;54.34
56600;BME280;51832;48.152;11.530;2023-07-02T13:16:55;95147.84;;;24.87;50.47
56600;BME280;51832;48.152;11.530;2023-07-02T13:21:55;95138.31;;;24.12;52.60
56600;BME280;51832;48.152;11.530;2023-07-02T13:26:56;95126.34;;;24.61;51.16
56600;BME280;51832;48.152;11.530;2023-07-02T13:31:56;95156.88;;;24.82;50.74
56600;BME280;51832;48.152;11.530;2023-07-02T13:36:56;95146.69;;;25.22;51.63
56600;BME280;51832;48.152;11.530;2023-07-02T13:41:57;95140.59;;;24.70;48.79
56600;BME280;51832;48.152;11.530;2023-07-02T13:46:57;95147.50;;;24.19;52.69
56600;BME280;51832;48.152;11.530;2023-07-02T13:51:58;95131.69;;;24.78;51.29
56600;BME280;51832;48.152;11.530;2023-07-02T13:56:59;95142.16;;;24.62;49.11
56600;BME280;51832;48.152;11.530;2023-07-02T14:01:59;95141.53;;;25.46;47.84
56600;BME280;51832;48.152;11.530;2023-07-02T14:07:00;95138.88;;;25.29;48.75
56600;BME280;51832;48.152;11.530;2023-07-02T14:12:00;95124.72;;;26.92;46.32
56600;BME280;51832;48.152;11.530;2023-07-02T14:17:01;95132.63;;;25.93;45.90
56600;BME280;51832;48.152;11.530;2023-07-02T14:22:01;95130.16;;;26.08;45.08
56600;BME280;51832;48.152;11.530;2023-07-02T14:27:02;95122.09;;;26.00;45.12
56600;BME280;51832;48.152;11.530;2023-07-02T14:32:02;95141.72;;;26.09;45.70
56600;BME280;51832;48.152;11.530;2023-07-02T14:37:03;95133.72;;;25.92;46.72
56600;BME280;51832;48.152;11.530;2023-07-02T14:42:04;95124.09;;;25.44;47.96
56600;BME280;51832;48.152;11.530;2023-07-02T14:47:06;95124.94;;;26.03;46.75
56600;BME280;51832;48.152;11.530;2023-07-02T14:52:07;95115.72;;;26.67;45.65
56600;BME280;51832;48.152;11.530;2023-07-02T14:57:07;95128.09;;;26.26;45.31
56600;BME280;51832;48.152;11.530;2023-07-02T15:02:08;95125.31;;;27.42;42.51
56600;BME280;51832;48.152;11.530;2023-07-02T15:07:08;95132.94;;;26.62;43.96
56600;BME280;51832;48.152;11.530;2023-07-02T15:12:11;95130.88;;;26.38;44.91
56600;BME280;51832;48.152;11.530;2023-07-02T15:17:15;95119.47;;;26.74;45.16
56600;BME280;51832;48.152;11.530;2023-07-02T15:22:16;95123.38;;;26.65;45.45
56600;BME280;51832;48.152;11.530;2023-07-02T15:27:16;95116.78;;;27.07;44.10
56600;BME280;51832;48.152;11.530;2023-07-02T15:32:17;95112.00;;;26.92;44.17
56600;BME280;51832;48.152;11.530;2023-07-02T15:37:17;95108.75;;;27.32;43.59
56600;BME280;51832;48.152;11.530;2023-07-02T15:42:18;95121.84;;;27.09;42.85
56600;BME280;51832;48.152;11.530;2023-07-02T15:47:18;95102.97;;;27.21;43.68
56600;BME280;51832;48.152;11.530;2023-07-02T15:52:19;95111.56;;;26.90;42.19
56600;BME280;51832;48.152;11.530;2023-07-02T15:57:20;95107.78;;;27.03;42.53
56600;BME280;51832;48.152;11.530;2023-07-02T16:02:21;95100.75;;;27.47;41.05
56600;BME280;51832;48.152;11.530;2023-07-02T16:07:22;95101.88;;;28.07;40.18
56600;BME280;51832;48.152;11.530;2023-07-02T16:12:23;95117.19;;;28.27;39.16
56600;BME280;51832;48.152;11.530;2023-07-02T16:17:23;95117.44;;;27.98;39.47
56600;BME280;51832;48.152;11.530;2023-07-02T16:22:24;95090.06;;;28.00;40.58
56600;BME280;51832;48.152;11.530;2023-07-02T16:27:24;95102.47;;;28.53;40.28
56600;BME280;51832;48.152;11.530;2023-07-02T16:32:25;95103.34;;;28.29;40.61
56600;BME280;51832;48.152;11.530;2023-07-02T16:37:28;95113.50;;;27.47;41.53
56600;BME280;51832;48.152;11.530;2023-07-02T16:42:29;95112.78;;;27.38;41.69
56600;BME280;51832;48.152;11.530;2023-07-02T16:47:29;95113.38;;;26.44;44.20
56600;BME280;51832;48.152;11.530;2023-07-02T16:52:30;95111.63;;;26.48;44.62
56600;BME280;51832;48.152;11.530;2023-07-02T16:57:31;95130.72;;;25.93;45.70
56600;BME280;51832;48.152;11.530;2023-07-02T17:02:31;95137.06;;;26.39;44.06
56600;BME280;51832;48.152;11.530;2023-07-02T17:07:31;95120.34;;;28.70;39.06
56600;BME280;51832;48.152;11.530;2023-07-02T17:12:32;95138.88;;;29.11;37.90
56600;BME280;51832;48.152;11.530;2023-07-02T17:17:32;95131.69;;;28.75;38.38
56600;BME280;51832;48.152;11.530;2023-07-02T17:22:33;95124.25;;;28.44;39.10
56600;BME280;51832;48.152;11.530;2023-07-02T17:27:34;95115.25;;;28.16;40.06
56600;BME280;51832;48.152;11.530;2023-07-02T17:32:35;95119.63;;;29.44;38.00
56600;BME280;51832;48.152;11.530;2023-07-02T17:37:35;95134.47;;;29.82;37.35
56600;BME280;51832;48.152;11.530;2023-07-02T17:42:36;95123.38;;;29.87;36.98
56600;BME280;51832;48.152;11.530;2023-07-02T17:47:36;95116.38;;;29.86;36.58
56600;BME280;51832;48.152;11.530;2023-07-02T17:52:37;95117.50;;;30.00;36.34
56600;BME280;51832;48.152;11.530;2023-07-02T17:57:37;95109.41;;;31.35;33.99
56600;BME280;51832;48.152;11.530;2023-07-02T18:02:38;95122.28;;;30.58;35.55
56600;BME280;51832;48.152;11.530;2023-07-02T18:07:39;95122.69;;;29.74;37.00
56600;BME280;51832;48.152;11.530;2023-07-02T18:12:39;95118.25;;;31.09;35.29
56600;BME280;51832;48.152;11.530;2023-07-02T18:17:40;95116.47;;;30.79;35.78
56600;BME280;51832;48.152;11.530;2023-07-02T18:22:40;95130.19;;;29.33;38.08
56600;BME280;51832;48.152;11.530;2023-07-02T18:27:41;95132.59;;;29.51;38.33
56600;BME280;51832;48.152;11.530;2023-07-02T18:32:41;95129.63;;;28.96;39.44
56600;BME280;51832;48.152;11.530;2023-07-02T18:37:41;95125.66;;;27.65;42.69
56600;BME280;51832;48.152;11.530;2023-07-02T18:42:42;95132.25;;;27.19;43.80
56600;BME280;51832;48.152;11.530;2023-07-02T18:47:43;95140.19;;;26.49;45.42
56600;BME280;51832;48.152;11.530;2023-07-02T18:52:44;95137.19;;;26.22;46.56
56600;BME280;51832;48.152;11.530;2023-07-02T18:57:45;95136.59;;;26.16;46.46
56600;BME280;51832;48.152;11.530;2023-07-02T19:02:49;95135.31;;;26.13;46.89
56600;BME280;51832;48.152;11.530;2023-07-02T19:07:49;95139.53;;;26.02;47.11
56600;BME280;51832;48.152;11.530;2023-07-02T19:12:49;95150.94;;;25.78;48.21
56600;BME280;51832;48.152;11.530;2023-07-02T19:17:50;95150.06;;;26.16;47.65
56600;BME280;51832;48.152;11.530;2023-07-02T19:22:50;95155.94;;;25.89;48.24
56600;BME280;51832;48.152;11.530;2023-07-02T19:27:51;95162.06;;;25.68;49.12
56600;BME280;51832;48.152;11.530;2023-07-02T19:32:54;95168.41;;;25.08;51.11
56600;BME280;51832;48.152;11.530;2023-07-02T19:37:55;95167.56;;;25.34;50.94
56600;BME280;51832;48.152;11.530;2023-07-02T19:42:55;95187.16;;;25.43;50.94
56600;BME280;51832;48.152;11.530;2023-07-02T19:47:56;95188.69;;;24.80;52.66
56600;BME280;51832;48.152;11.530;2023-07-02T19:52:56;95178.25;;;24.87;52.73
56600;BME280;51832;48.152;11.530;2023-07-02T19:57:56;95181.88;;;24.91;52.45
56600;BME280;51832;48.152;11.530;2023-07-02T20:02:57;95180.28;;;24.90;52.79
56600;BME280;51832;48.152;11.530;2023-07-02T20:07:57;95197.69;;;24.93;53.10
56600;BME280;51832;48.152;11.530;2023-07-02T20:12:58;95207.03;;;24.61;54.47
56600;BME280;51832;48.152;11.530;2023-07-02T20:17:58;95218.13;;;24.51;54.67
56600;BME280;51832;48.152;11.530;2023-07-02T20:22:59;95212.91;;;24.80;53.52
56600;BME280;51832;48.152;11.530;2023-07-02T20:28:00;95216.38;;;24.46;55.00
56600;BME280;51832;48.152;11.530;2023-07-02T20:33:01;95223.97;;;23.96;56.52
56600;BME280;51832;48.152;11.530;2023-07-02T20:38:01;95225.88;;;24.43;55.25
56600;BME280;51832;48.152;11.530;2023-07-02T20:43:02;95230.81;;;24.59;55.03
56600;BME280;51832;48.152;11.530;2023-07-02T20:48:02;95228.03;;;24.33;55.02
56600;BME280;51832;48.152;11.530;2023-07-02T20:53:03;95227.75;;;24.34;55.49
56600;BME280;51832;48.152;11.530;2023-07-02T20:58:04;95225.78;;;24.18;56.40
56600;BME280;51832;48.152;11.530;2023-07-02T21:03:05;95231.31;;;24.13;56.64
56600;BME280;51832;48.152;11.530;2023-07-02T21:08:05;95228.25;;;23.97;56.96
56600;BME280;51832;48.152;11.530;2023-07-02T21:13:06;95235.63;;;23.83;57.38
56600;BME280;51832;48.152;11.530;2023-07-02T21:18:06;95234.50;;;23.75;58.28
56600;BME280;51832;48.152;11.530;2023-07-02T21:23:07;95245.91;;;23.27;59.93
56600;BME280;51832;48.152;11.530;2023-07-02T21:28:07;95247.19;;;23.52;59.29
56600;BME280;51832;48.152;11.530;2023-07-02T21:33:08;95246.69;;;23.28;60.48
56600;BME280;51832;48.152;11.530;2023-07-02T21:38:08;95267.34;;;23.19;60.99
56600;BME280;51832;48.152;11.530;2023-07-02T21:43:09;95262.00;;;23.27;60.61
56600;BME280;51832;48.152;11.530;2023-07-02T21:48:10;95274.00;;;23.21;61.07
56600;BME280;51832;48.152;11.530;2023-07-02T21:53:10;95267.69;;;23.03;61.85
56600;BME280;51832;48.152;11.530;2023-07-02T21:58:11;95278.03;;;22.96;62.23
56600;BME280;51832;48.152;11.530;2023-07-02T22:03:11;95280.13;;;22.63;63.61
56600;BME280;51832;48.152;11.530;2023-07-02T22:08:12;95285.84;;;22.84;62.96
56600;BME280;51832;48.152;11.530;2023-07-02T22:13:12;95284.75;;;22.85;62.89
56600;BME280;51832;48.152;11.530;2023-07-02T22:18:13;95278.25;;;23.00;62.53
56600;BME280;51832;48.152;11.530;2023-07-02T22:23:14;95285.75;;;22.76;63.37
56600;BME280;51832;48.152;11.530;2023-07-02T22:28:14;95289.50;;;22.88;63.53
56600;BME280;51832;48.152;11.530;2023-07-02T22:33:15;95280.78;;;22.83;63.51
56600;BME280;51832;48.152;11.530;2023-07-02T22:38:15;95290.84;;;22.77;63.85
56600;BME280;51832;48.152;11.530;2023-07-02T22:43:16;95294.03;;;22.65;64.18
56600;BME280;51832;48.152;11.530;2023-07-02T22:48:16;95293.84;;;22.34;64.62
56600;BME280;51832;48.152;11.530;2023-07-02T22:53:16;95287.97;;;22.60;63.87
56600;BME280;51832;48.152;11.530;2023-07-02T22:58:17;95283.13;;;22.48;64.18
56600;BME280;51832;48.152;11.530;2023-07-02T23:03:17;95287.25;;;22.68;63.79
56600;BME280;51832;48.152;11.530;2023-07-02T23:08:18;95286.53;;;21.99;66.67
56600;BME280;51832;48.152;11.530;2023-07-02T23:13:18;95273.94;;;22.13;66.69
56600;BME280;51832;48.152;11.530;2023-07-02T23:18:19;95275.00;;;22.26;66.62
56600;BME280;51832;48.152;11.530;2023-07-02T23:23:19;95280.38;;;22.12;67.37
56600;BME280;51832;48.152;11.530;2023-07-02T23:28:19;95276.00;;;22.03;67.11
56600;BME280;51832;48.152;11.530;2023-07-02T23:33:21;95278.88;;;22.33;65.91
56600;BME280;51832;48.152;11.530;2023-07-02T23:38:21;95277.78;;;22.21;66.38
56600;BME280;51832;48.152;11.530;2023-07-02T23:43:22;95270.84;;;22.06;66.98
56600;BME280;51832;48.152;11.530;2023-07-02T23:48:23;95266.47;;;22.10;67.61
56600;BME280;51832;48.152;11.530;2023-07-02T23:53:23;95274.00;;;21.94;67.79
56600;BME280;51832;48.152;11.530;2023-07-02T23:58:24;95267.47;;;22.01;67.71
